createdAt,value
2022-08-30T00:04:08.392Z,26.81
2022-08-30T00:09:10.716Z,26.84
2022-08-30T00:14:12.697Z,26.81
2022-08-30T00:19:14.751Z,26.84
2022-08-30T00:24:16.759Z,26.87
2022-08-30T00:29:18.521Z,26.81
2022-08-30T00:34:20.564Z,26.82
2022-08-30T00:39:22.357Z,26.83
2022-08-30T00:44:24.538Z,26.87
2022-08-30T00:49:27.084Z,26.86
2022-08-30T00:54:30.842Z,26.89
2022-08-30T00:59:34.276Z,26.85
2022-08-30T01:04:38.026Z,26.91
2022-08-30T01:09:39.938Z,26.85
2022-08-30T01:14:42.008Z,26.88
2022-08-30T01:19:48.856Z,26.80
2022-08-30T01:24:55.067Z,26.87
2022-08-30T01:29:58.355Z,26.89
2022-08-30T01:35:00.287Z,26.87
2022-08-30T01:40:02.337Z,26.84
2022-08-30T01:45:05.670Z,26.86
2022-08-30T01:50:08.507Z,26.86
2022-08-30T01:55:10.947Z,26.80
2022-08-30T02:00:13.687Z,26.82
2022-08-30T02:05:16.254Z,26.77
2022-08-30T02:10:18.014Z,26.83
2022-08-30T02:15:19.960Z,26.83
2022-08-30T02:20:21.895Z,26.80
2022-08-30T02:25:23.987Z,26.81
2022-08-30T02:30:27.044Z,26.83
2022-08-30T02:35:28.958Z,26.79
2022-08-30T02:40:31.173Z,26.81
2022-08-30T02:45:33.495Z,26.82
2022-08-30T02:50:35.333Z,26.80
2022-08-30T02:55:37.231Z,26.77
2022-08-30T03:00:41.444Z,26.80
2022-08-30T03:05:43.394Z,26.81
2022-08-30T03:10:45.220Z,26.81
2022-08-30T03:15:49.350Z,26.85
2022-08-30T03:20:54.480Z,26.85
2022-08-30T03:25:57.547Z,26.80
2022-08-30T03:30:59.405Z,26.81
2022-08-30T03:36:01.541Z,26.81
2022-08-30T03:41:04.617Z,26.80
2022-08-30T03:46:08.134Z,26.77
2022-08-30T03:51:10.108Z,26.79
2022-08-30T03:56:12.006Z,26.81
2022-08-30T04:01:14.041Z,26.72
2022-08-30T04:06:16.280Z,26.78
2022-08-30T04:11:18.138Z,26.74
2022-08-30T04:16:20.690Z,26.76
2022-08-30T04:21:22.782Z,26.84
2022-08-30T04:26:27.643Z,26.78
2022-08-30T04:31:31.680Z,26.79
2022-08-30T04:36:33.682Z,26.82
2022-08-30T04:41:37.287Z,26.75
2022-08-30T04:46:44.536Z,26.76
2022-08-30T04:51:46.682Z,26.79
2022-08-30T04:56:48.437Z,26.77
2022-08-30T05:01:50.280Z,26.85
2022-08-30T05:06:53.130Z,26.76
2022-08-30T05:11:55.219Z,26.76
2022-08-30T05:16:57.105Z,26.79
2022-08-30T05:21:59.098Z,26.84
2022-08-30T05:27:01.180Z,26.77
2022-08-30T05:32:03.347Z,26.79
2022-08-30T05:37:05.326Z,26.79
2022-08-30T05:42:07.503Z,26.75
2022-08-30T05:47:09.370Z,26.75
2022-08-30T05:52:13.014Z,26.74
2022-08-30T05:57:14.970Z,26.84
2022-08-30T06:02:17.157Z,26.75
2022-08-30T06:07:21.169Z,26.74
2022-08-30T06:12:24.756Z,26.75
2022-08-30T06:17:27.468Z,26.70
2022-08-30T06:22:29.258Z,26.87
2022-08-30T06:27:31.708Z,26.91
2022-08-30T06:32:33.615Z,26.88
2022-08-30T06:37:35.696Z,26.92
2022-08-30T06:42:37.498Z,26.90
2022-08-30T06:47:40.824Z,26.92
2022-08-30T06:52:43.782Z,26.94
2022-08-30T06:57:47.082Z,26.92
2022-08-30T07:02:49.189Z,26.90
2022-08-30T07:07:55.284Z,26.74
2022-08-30T07:12:57.424Z,26.87
2022-08-30T07:18:17.881Z,26.88
2022-08-30T07:23:19.798Z,26.94
2022-08-30T07:28:21.662Z,26.93
2022-08-30T07:33:23.532Z,26.97
2022-08-30T07:38:26.375Z,26.99
2022-08-30T07:43:34.200Z,26.99
2022-08-30T07:48:37.307Z,26.98
2022-08-30T07:53:39.643Z,26.97
2022-08-30T07:58:42.042Z,26.91
2022-08-30T08:03:44.981Z,26.95
2022-08-30T08:08:46.902Z,26.88
2022-08-30T08:13:53.451Z,27.01
2022-08-30T08:18:56.808Z,27.02
2022-08-30T08:23:58.760Z,26.91
2022-08-30T08:29:00.720Z,26.77
2022-08-30T08:34:06.151Z,26.64
2022-08-30T08:39:09.985Z,26.60
2022-08-30T08:44:34.722Z,26.56
2022-08-30T08:49:39.838Z,26.69
2022-08-30T08:54:59.188Z,26.74
2022-08-30T09:00:01.954Z,26.95
2022-08-30T09:05:04.015Z,26.94
2022-08-30T09:10:07.391Z,26.91
2022-08-30T09:15:25.469Z,26.95
2022-08-30T09:20:36.719Z,27.00
2022-08-30T09:25:41.945Z,26.89
2022-08-30T09:31:20.864Z,26.92
2022-08-30T09:36:29.116Z,26.93
2022-08-30T09:41:36.671Z,27.05
2022-08-30T09:46:54.677Z,27.00
2022-08-30T09:52:32.828Z,27.01
2022-08-30T09:58:13.203Z,27.06
2022-08-30T10:03:40.276Z,27.09
2022-08-30T10:09:26.858Z,26.99
2022-08-30T10:14:51.249Z,26.91
2022-08-30T10:20:01.905Z,27.12
2022-08-30T10:25:22.196Z,27.03
2022-08-30T10:30:24.098Z,27.15
2022-08-30T10:35:36.864Z,27.09
2022-08-30T10:41:03.422Z,26.99
2022-08-30T10:46:14.637Z,27.12
2022-08-30T10:51:28.306Z,27.13
2022-08-30T10:56:30.285Z,27.02
2022-08-30T11:01:46.267Z,27.01
2022-08-30T11:06:55.009Z,27.09
2022-08-30T11:12:15.497Z,27.07
2022-08-30T11:17:36.079Z,27.02
2022-08-30T11:22:40.284Z,27.12
2022-08-30T11:27:52.134Z,27.08
2022-08-30T11:33:09.462Z,26.96
2022-08-30T11:38:40.301Z,26.87
2022-08-30T11:43:45.026Z,26.90
2022-08-30T11:48:54.149Z,27.16
2022-08-30T11:54:26.332Z,26.91
2022-08-30T11:59:53.995Z,26.89
2022-08-30T12:04:56.732Z,26.70
2022-08-30T12:10:01.341Z,27.03
2022-08-30T12:15:04.475Z,27.07
2022-08-30T12:20:18.997Z,26.97
2022-08-30T12:25:29.105Z,27.04
2022-08-30T12:30:31.142Z,27.10
2022-08-30T12:35:34.130Z,26.86
2022-08-30T12:40:37.934Z,26.99
2022-08-30T12:45:50.975Z,26.96
2022-08-30T12:51:01.330Z,26.95
2022-08-30T12:56:35.029Z,26.96
2022-08-30T13:01:40.018Z,26.93
2022-08-30T13:06:50.135Z,26.77
2022-08-30T13:11:52.221Z,26.87
2022-08-30T13:17:09.965Z,26.90
2022-08-30T13:22:30.843Z,26.87
2022-08-30T13:27:36.815Z,26.70
2022-08-30T13:32:39.350Z,26.66
2022-08-30T13:37:50.118Z,26.64
2022-08-30T13:42:52.931Z,26.61
2022-08-30T13:47:55.678Z,26.65
2022-08-30T13:52:57.888Z,26.58
2022-08-30T13:57:59.848Z,26.61
2022-08-30T14:03:02.456Z,26.59
2022-08-30T14:08:05.972Z,26.57
2022-08-30T14:13:10.324Z,26.68
2022-08-30T14:18:17.176Z,26.68
2022-08-30T14:23:19.687Z,26.64
2022-08-30T14:28:22.332Z,26.72
2022-08-30T14:33:24.156Z,26.69
2022-08-30T14:38:26.141Z,26.65
2022-08-30T14:43:28.113Z,26.75
2022-08-30T14:48:30.223Z,26.80
2022-08-30T14:53:32.070Z,26.72
2022-08-30T14:58:34.666Z,26.75
2022-08-30T15:03:38.476Z,26.65
2022-08-30T15:08:40.878Z,26.69
2022-08-30T15:13:44.812Z,26.71
2022-08-30T15:18:47.077Z,26.81
2022-08-30T15:23:49.773Z,26.85
2022-08-30T15:28:54.371Z,26.78
2022-08-30T15:33:56.592Z,26.82
2022-08-30T15:39:00.095Z,26.77
2022-08-30T15:44:02.858Z,26.82
2022-08-30T15:49:12.135Z,26.79
2022-08-30T15:54:17.261Z,26.76
2022-08-30T15:59:19.868Z,26.75
2022-08-30T16:04:22.832Z,26.73
2022-08-30T16:09:30.222Z,26.74
2022-08-30T16:14:34.786Z,26.70
2022-08-30T16:19:37.848Z,26.72
2022-08-30T16:24:41.445Z,26.89
2022-08-30T16:29:43.177Z,26.89
2022-08-30T16:34:45.090Z,26.95
2022-08-30T16:39:46.996Z,26.92
2022-08-30T16:44:49.797Z,27.01
2022-08-30T16:49:51.908Z,27.05
2022-08-30T16:54:53.821Z,26.97
2022-08-30T16:59:55.724Z,27.01
2022-08-30T17:04:58.854Z,27.04
2022-08-30T17:10:00.793Z,27.04
2022-08-30T17:15:05.590Z,26.95
2022-08-30T17:20:09.127Z,26.93
2022-08-30T17:25:11.935Z,26.96
2022-08-30T17:30:14.053Z,26.95
2022-08-30T17:35:16.183Z,26.98
2022-08-30T17:40:19.686Z,27.07
2022-08-30T17:45:21.792Z,27.09
2022-08-30T17:50:23.998Z,27.11
2022-08-30T17:55:30.765Z,26.98
2022-08-30T18:00:32.801Z,26.94
2022-08-30T18:05:35.483Z,27.08
2022-08-30T18:10:40.365Z,27.09
2022-08-30T18:15:45.522Z,27.06
2022-08-30T18:20:52.585Z,27.13
2022-08-30T18:26:02.573Z,27.19
2022-08-30T18:31:04.595Z,27.10
2022-08-30T18:36:11.452Z,27.10
2022-08-30T18:41:15.222Z,27.17
2022-08-30T18:46:18.704Z,27.18
2022-08-30T18:51:22.113Z,27.09
2022-08-30T18:56:27.988Z,27.12
2022-08-30T19:01:34.656Z,27.17
2022-08-30T19:06:37.714Z,27.16
2022-08-30T19:11:40.165Z,27.15
2022-08-30T19:16:42.344Z,27.08
2022-08-30T19:21:44.274Z,27.10
2022-08-30T19:26:47.710Z,27.15
2022-08-30T19:31:49.785Z,27.11
2022-08-30T19:36:54.418Z,27.08
2022-08-30T19:41:56.328Z,27.13
2022-08-30T19:46:59.930Z,27.15
2022-08-30T19:52:02.196Z,27.08
2022-08-30T19:57:05.159Z,27.01
2022-08-30T20:02:08.548Z,27.08
2022-08-30T20:07:10.837Z,27.10
2022-08-30T20:12:12.779Z,27.08
2022-08-30T20:17:15.544Z,26.97
2022-08-30T20:22:17.430Z,26.99
2022-08-30T20:27:19.969Z,26.97
2022-08-30T20:32:22.042Z,27.00
2022-08-30T20:37:23.918Z,27.07
2022-08-30T20:42:25.987Z,27.12
2022-08-30T20:47:28.448Z,27.09
2022-08-30T20:52:30.357Z,27.09
2022-08-30T20:57:32.763Z,27.20
2022-08-30T21:02:34.768Z,27.16
2022-08-30T21:07:36.665Z,27.08
2022-08-30T21:12:39.072Z,27.00
2022-08-30T21:17:41.207Z,27.05
2022-08-30T21:22:44.224Z,26.99
2022-08-30T21:27:46.106Z,26.96
2022-08-30T21:32:48.097Z,26.96
2022-08-30T21:37:49.931Z,26.90
2022-08-30T21:42:52.253Z,26.91
2022-08-30T21:47:54.055Z,26.95
2022-08-30T21:52:55.983Z,26.99
2022-08-30T21:57:58.018Z,26.99
2022-08-30T22:02:59.849Z,27.03
2022-08-30T22:08:01.770Z,27.05
2022-08-30T22:13:03.895Z,27.03
2022-08-30T22:18:05.707Z,27.06
2022-08-30T22:23:08.064Z,27.06
2022-08-30T22:28:09.978Z,26.96
2022-08-30T22:33:12.252Z,27.02
2022-08-30T22:38:15.217Z,26.95
2022-08-30T22:43:17.674Z,27.06
2022-08-30T22:48:19.558Z,27.01
2022-08-30T22:53:21.491Z,26.95
2022-08-30T22:58:23.885Z,26.96
2022-08-30T23:03:25.765Z,26.93
2022-08-30T23:08:27.713Z,26.92
2022-08-30T23:13:29.564Z,26.97
2022-08-30T23:18:32.414Z,26.91
2022-08-30T23:23:52.784Z,26.94
2022-08-30T23:29:13.296Z,27.00
2022-08-30T23:34:33.866Z,26.99
2022-08-30T23:39:56.495Z,26.98
2022-08-30T23:45:17.161Z,27.01
2022-08-30T23:50:37.556Z,27.08
2022-08-30T23:55:58.506Z,27.04
